MAC42B GMMN-GMMX
Flight info
| Callsign | MAC42B |
|---|---|
| Flight time | N/A |
| Altitude | 17000 |
| Route | FOBAC R722 MABAP |
| Aircraft | A20N/M-SDE2E3FGHIRWXY/LB1 |
Departure
| Time | 2026-04-30 22:56 |
|---|---|
| Airport | Mohammed V International Airport (GMMN) |
Arrival
| Time | N/A |
|---|---|
| Airport | Marrakesh Menara Airport (GMMX) |
| Time | Latitude | Longitude | Altitude | Speed | Heading |
|---|---|---|---|---|---|
| 2026-04-30 22:41 | 33.37563 | -7.58333 | 655 ft | 0 kts | 78° |
| 2026-04-30 22:48 | 33.37558 | -7.58358 | 654 ft | 2 kts | 75° |
| 2026-04-30 22:49 | 33.37537 | -7.58410 | 657 ft | 2 kts | 13° |
| 2026-04-30 22:49 | 33.37523 | -7.58410 | 654 ft | 0 kts | 345° |
| 2026-04-30 22:51 | 33.37540 | -7.58415 | 657 ft | 4 kts | 345° |
| 2026-04-30 22:51 | 33.37709 | -7.58454 | 654 ft | 21 kts | 346° |
| 2026-04-30 22:52 | 33.37840 | -7.58543 | 653 ft | 24 kts | 305° |
| 2026-04-30 22:52 | 33.37923 | -7.58830 | 652 ft | 17 kts | 334° |
| 2026-04-30 22:53 | 33.38174 | -7.58914 | 652 ft | 18 kts | 345° |
| 2026-04-30 22:53 | 33.38267 | -7.58944 | 653 ft | 9 kts | 343° |
| 2026-04-30 22:53 | 33.38333 | -7.58968 | 654 ft | 11 kts | 343° |
| 2026-04-30 22:54 | 33.38456 | -7.59075 | 653 ft | 13 kts | 256° |
| 2026-04-30 22:55 | 33.38359 | -7.59345 | 651 ft | 9 kts | 157° |
| 2026-04-30 22:55 | 33.37560 | -7.59066 | 650 ft | 123 kts | 163° |
| 2026-04-30 22:56 | 33.35539 | -7.58394 | 1266 ft | 155 kts | 162° |
| 2026-04-30 22:56 | 33.34386 | -7.58020 | 1814 ft | 161 kts | 163° |
| 2026-04-30 22:57 | 33.32089 | -7.57717 | 2844 ft | 179 kts | 182° |
| 2026-04-30 22:57 | 33.29408 | -7.58070 | 3978 ft | 212 kts | 185° |
| 2026-04-30 22:58 | 33.26198 | -7.58904 | 5152 ft | 248 kts | 206° |
| 2026-04-30 22:59 | 33.22594 | -7.62989 | 8224 ft | 247 kts | 232° |
| 2026-04-30 22:59 | 33.19330 | -7.67965 | 10812 ft | 261 kts | 232° |